sensor_id;sensor_type;location;lat;lon;timestamp;P1;durP1;ratioP1;P2;durP2;ratioP2
11481;SDS011;5797;51.662;6.748;2022-12-07T00:01:44;14.70;;;9.03;;
11481;SDS011;5797;51.662;6.748;2022-12-07T00:04:15;13.90;;;8.43;;
11481;SDS011;5797;51.662;6.748;2022-12-07T00:06:45;13.33;;;8.27;;
11481;SDS011;5797;51.662;6.748;2022-12-07T00:09:18;14.73;;;9.40;;
11481;SDS011;5797;51.662;6.748;2022-12-07T00:11:50;19.07;;;10.40;;
11481;SDS011;5797;51.662;6.748;2022-12-07T00:14:20;17.60;;;9.43;;
11481;SDS011;5797;51.662;6.748;2022-12-07T00:16:49;15.30;;;10.37;;
11481;SDS011;5797;51.662;6.748;2022-12-07T00:19:19;19.87;;;10.33;;
11481;SDS011;5797;51.662;6.748;2022-12-07T00:21:48;19.80;;;11.17;;
11481;SDS011;5797;51.662;6.748;2022-12-07T00:24:17;16.17;;;10.17;;
11481;SDS011;5797;51.662;6.748;2022-12-07T00:26:46;16.07;;;10.67;;
11481;SDS011;5797;51.662;6.748;2022-12-07T00:29:17;19.10;;;11.67;;
11481;SDS011;5797;51.662;6.748;2022-12-07T00:31:48;17.17;;;11.20;;
11481;SDS011;5797;51.662;6.748;2022-12-07T00:34:18;20.27;;;10.90;;
11481;SDS011;5797;51.662;6.748;2022-12-07T00:36:49;21.40;;;11.47;;
11481;SDS011;5797;51.662;6.748;2022-12-07T00:39:18;19.83;;;11.30;;
11481;SDS011;5797;51.662;6.748;2022-12-07T00:41:47;18.80;;;11.37;;
11481;SDS011;5797;51.662;6.748;2022-12-07T00:44:18;17.87;;;10.73;;
11481;SDS011;5797;51.662;6.748;2022-12-07T00:46:47;18.57;;;11.97;;
11481;SDS011;5797;51.662;6.748;2022-12-07T00:49:16;16.70;;;10.83;;
11481;SDS011;5797;51.662;6.748;2022-12-07T00:51:45;18.20;;;10.40;;
11481;SDS011;5797;51.662;6.748;2022-12-07T00:54:16;16.80;;;11.10;;
11481;SDS011;5797;51.662;6.748;2022-12-07T00:56:45;19.03;;;10.93;;
11481;SDS011;5797;51.662;6.748;2022-12-07T00:59:14;19.43;;;11.70;;
11481;SDS011;5797;51.662;6.748;2022-12-07T01:01:44;20.47;;;11.47;;
11481;SDS011;5797;51.662;6.748;2022-12-07T01:04:13;18.13;;;11.37;;
11481;SDS011;5797;51.662;6.748;2022-12-07T01:06:43;21.47;;;11.93;;
11481;SDS011;5797;51.662;6.748;2022-12-07T01:09:11;16.47;;;10.67;;
11481;SDS011;5797;51.662;6.748;2022-12-07T01:11:40;18.23;;;11.73;;
11481;SDS011;5797;51.662;6.748;2022-12-07T01:14:09;23.53;;;12.03;;
11481;SDS011;5797;51.662;6.748;2022-12-07T01:16:38;24.10;;;12.63;;
11481;SDS011;5797;51.662;6.748;2022-12-07T01:19:09;20.87;;;12.20;;
11481;SDS011;5797;51.662;6.748;2022-12-07T01:21:39;18.87;;;11.97;;
11481;SDS011;5797;51.662;6.748;2022-12-07T01:24:09;21.50;;;11.00;;
11481;SDS011;5797;51.662;6.748;2022-12-07T01:26:39;22.13;;;12.80;;
11481;SDS011;5797;51.662;6.748;2022-12-07T01:29:08;21.90;;;11.43;;
11481;SDS011;5797;51.662;6.748;2022-12-07T01:31:37;20.27;;;12.03;;
11481;SDS011;5797;51.662;6.748;2022-12-07T01:34:06;20.67;;;11.23;;
11481;SDS011;5797;51.662;6.748;2022-12-07T01:36:36;22.20;;;11.83;;
11481;SDS011;5797;51.662;6.748;2022-12-07T01:39:06;19.03;;;12.07;;
11481;SDS011;5797;51.662;6.748;2022-12-07T01:41:36;20.17;;;10.60;;
11481;SDS011;5797;51.662;6.748;2022-12-07T01:44:09;20.50;;;11.60;;
11481;SDS011;5797;51.662;6.748;2022-12-07T01:46:40;18.70;;;11.10;;
11481;SDS011;5797;51.662;6.748;2022-12-07T01:49:10;18.67;;;11.03;;
11481;SDS011;5797;51.662;6.748;2022-12-07T01:51:43;17.40;;;10.27;;
11481;SDS011;5797;51.662;6.748;2022-12-07T01:54:13;19.87;;;11.33;;
11481;SDS011;5797;51.662;6.748;2022-12-07T01:56:50;19.03;;;10.87;;
11481;SDS011;5797;51.662;6.748;2022-12-07T01:59:21;21.63;;;11.67;;
11481;SDS011;5797;51.662;6.748;2022-12-07T02:01:53;18.80;;;10.73;;
11481;SDS011;5797;51.662;6.748;2022-12-07T02:04:23;15.47;;;10.00;;
11481;SDS011;5797;51.662;6.748;2022-12-07T02:06:53;18.40;;;10.70;;
11481;SDS011;5797;51.662;6.748;2022-12-07T02:09:23;18.07;;;10.53;;
11481;SDS011;5797;51.662;6.748;2022-12-07T02:11:52;15.60;;;9.67;;
11481;SDS011;5797;51.662;6.748;2022-12-07T02:14:22;15.67;;;10.37;;
11481;SDS011;5797;51.662;6.748;2022-12-07T02:16:57;18.27;;;10.63;;
11481;SDS011;5797;51.662;6.748;2022-12-07T02:22:37;17.83;;;10.70;;
11481;SDS011;5797;51.662;6.748;2022-12-07T02:25:20;18.30;;;9.90;;
11481;SDS011;5797;51.662;6.748;2022-12-07T02:27:52;18.77;;;9.87;;
11481;SDS011;5797;51.662;6.748;2022-12-07T02:30:26;18.63;;;9.40;;
11481;SDS011;5797;51.662;6.748;2022-12-07T02:32:59;21.63;;;10.60;;
11481;SDS011;5797;51.662;6.748;2022-12-07T02:35:30;17.23;;;8.63;;
11481;SDS011;5797;51.662;6.748;2022-12-07T02:38:02;17.13;;;10.43;;
11481;SDS011;5797;51.662;6.748;2022-12-07T02:40:34;13.20;;;9.07;;
11481;SDS011;5797;51.662;6.748;2022-12-07T02:43:06;19.87;;;9.77;;
11481;SDS011;5797;51.662;6.748;2022-12-07T02:45:39;16.30;;;9.90;;
11481;SDS011;5797;51.662;6.748;2022-12-07T02:48:09;14.47;;;9.63;;
11481;SDS011;5797;51.662;6.748;2022-12-07T02:50:44;17.87;;;10.27;;
11481;SDS011;5797;51.662;6.748;2022-12-07T02:53:30;16.47;;;9.73;;
11481;SDS011;5797;51.662;6.748;2022-12-07T02:56:01;14.43;;;9.37;;
11481;SDS011;5797;51.662;6.748;2022-12-07T02:58:37;15.70;;;9.70;;
11481;SDS011;5797;51.662;6.748;2022-12-07T03:01:18;19.33;;;10.97;;
11481;SDS011;5797;51.662;6.748;2022-12-07T03:03:53;21.57;;;10.47;;
11481;SDS011;5797;51.662;6.748;2022-12-07T03:06:29;14.90;;;9.57;;
11481;SDS011;5797;51.662;6.748;2022-12-07T03:09:03;17.20;;;10.07;;
11481;SDS011;5797;51.662;6.748;2022-12-07T03:11:40;16.67;;;10.93;;
11481;SDS011;5797;51.662;6.748;2022-12-07T03:14:12;16.63;;;10.33;;
11481;SDS011;5797;51.662;6.748;2022-12-07T03:16:46;14.77;;;9.57;;
11481;SDS011;5797;51.662;6.748;2022-12-07T03:19:19;14.63;;;9.13;;
11481;SDS011;5797;51.662;6.748;2022-12-07T03:21:51;12.80;;;8.77;;
11481;SDS011;5797;51.662;6.748;2022-12-07T03:24:24;16.37;;;9.90;;
11481;SDS011;5797;51.662;6.748;2022-12-07T03:26:56;18.83;;;10.60;;
11481;SDS011;5797;51.662;6.748;2022-12-07T03:29:30;17.27;;;9.87;;
11481;SDS011;5797;51.662;6.748;2022-12-07T03:32:04;16.37;;;9.67;;
11481;SDS011;5797;51.662;6.748;2022-12-07T03:34:36;13.07;;;9.70;;
11481;SDS011;5797;51.662;6.748;2022-12-07T03:37:08;14.83;;;9.53;;
11481;SDS011;5797;51.662;6.748;2022-12-07T03:39:41;16.63;;;10.17;;
11481;SDS011;5797;51.662;6.748;2022-12-07T03:42:13;15.00;;;10.07;;
11481;SDS011;5797;51.662;6.748;2022-12-07T03:44:42;23.27;;;11.00;;
11481;SDS011;5797;51.662;6.748;2022-12-07T03:47:13;15.83;;;9.40;;
11481;SDS011;5797;51.662;6.748;2022-12-07T03:49:43;15.60;;;9.43;;
11481;SDS011;5797;51.662;6.748;2022-12-07T03:52:16;15.70;;;10.23;;
11481;SDS011;5797;51.662;6.748;2022-12-07T03:54:49;15.47;;;9.23;;
11481;SDS011;5797;51.662;6.748;2022-12-07T03:57:21;15.93;;;10.10;;
11481;SDS011;5797;51.662;6.748;2022-12-07T03:59:51;15.37;;;9.63;;
11481;SDS011;5797;51.662;6.748;2022-12-07T04:02:23;17.60;;;10.13;;
11481;SDS011;5797;51.662;6.748;2022-12-07T04:04:56;16.90;;;9.80;;
11481;SDS011;5797;51.662;6.748;2022-12-07T04:08:11;17.67;;;9.03;;
11481;SDS011;5797;51.662;6.748;2022-12-07T04:10:45;16.70;;;9.50;;
11481;SDS011;5797;51.662;6.748;2022-12-07T04:13:13;15.40;;;9.03;;
11481;SDS011;5797;51.662;6.748;2022-12-07T04:15:42;15.07;;;9.17;;
11481;SDS011;5797;51.662;6.748;2022-12-07T04:18:18;20.20;;;9.63;;
11481;SDS011;5797;51.662;6.748;2022-12-07T04:20:49;14.30;;;9.27;;
11481;SDS011;5797;51.662;6.748;2022-12-07T04:23:20;22.90;;;9.63;;
11481;SDS011;5797;51.662;6.748;2022-12-07T04:25:49;13.17;;;8.73;;
11481;SDS011;5797;51.662;6.748;2022-12-07T04:28:17;16.87;;;9.07;;
11481;SDS011;5797;51.662;6.748;2022-12-07T04:30:47;16.27;;;9.20;;
11481;SDS011;5797;51.662;6.748;2022-12-07T04:33:16;17.33;;;9.20;;
11481;SDS011;5797;51.662;6.748;2022-12-07T04:35:46;16.40;;;9.50;;
11481;SDS011;5797;51.662;6.748;2022-12-07T04:38:15;14.83;;;9.13;;
11481;SDS011;5797;51.662;6.748;2022-12-07T04:40:43;14.67;;;8.77;;
11481;SDS011;5797;51.662;6.748;2022-12-07T04:43:12;16.17;;;9.20;;
11481;SDS011;5797;51.662;6.748;2022-12-07T04:45:44;17.33;;;9.70;;
11481;SDS011;5797;51.662;6.748;2022-12-07T04:48:14;15.13;;;9.40;;
11481;SDS011;5797;51.662;6.748;2022-12-07T04:50:44;17.60;;;9.87;;
11481;SDS011;5797;51.662;6.748;2022-12-07T04:53:13;21.37;;;9.60;;
11481;SDS011;5797;51.662;6.748;2022-12-07T04:55:42;15.70;;;9.97;;
11481;SDS011;5797;51.662;6.748;2022-12-07T04:58:11;20.03;;;9.67;;
11481;SDS011;5797;51.662;6.748;2022-12-07T05:00:39;19.93;;;9.93;;
11481;SDS011;5797;51.662;6.748;2022-12-07T05:03:08;18.37;;;9.93;;
11481;SDS011;5797;51.662;6.748;2022-12-07T05:05:39;18.03;;;9.43;;
11481;SDS011;5797;51.662;6.748;2022-12-07T05:08:09;15.53;;;9.00;;
11481;SDS011;5797;51.662;6.748;2022-12-07T05:10:38;20.70;;;9.53;;
11481;SDS011;5797;51.662;6.748;2022-12-07T05:13:07;21.90;;;9.47;;
11481;SDS011;5797;51.662;6.748;2022-12-07T05:15:36;19.43;;;9.07;;
11481;SDS011;5797;51.662;6.748;2022-12-07T05:18:05;18.50;;;9.23;;
11481;SDS011;5797;51.662;6.748;2022-12-07T05:20:33;20.20;;;9.80;;
11481;SDS011;5797;51.662;6.748;2022-12-07T05:23:09;16.27;;;9.10;;
11481;SDS011;5797;51.662;6.748;2022-12-07T05:25:38;16.33;;;10.17;;
11481;SDS011;5797;51.662;6.748;2022-12-07T05:28:07;22.50;;;10.07;;
11481;SDS011;5797;51.662;6.748;2022-12-07T05:30:36;18.60;;;9.87;;
11481;SDS011;5797;51.662;6.748;2022-12-07T05:33:05;17.43;;;8.93;;
11481;SDS011;5797;51.662;6.748;2022-12-07T05:35:43;18.67;;;9.43;;
11481;SDS011;5797;51.662;6.748;2022-12-07T05:38:13;13.50;;;8.57;;
11481;SDS011;5797;51.662;6.748;2022-12-07T05:40:42;15.40;;;9.17;;
11481;SDS011;5797;51.662;6.748;2022-12-07T05:43:11;17.00;;;9.23;;
11481;SDS011;5797;51.662;6.748;2022-12-07T05:45:40;15.00;;;8.60;;
11481;SDS011;5797;51.662;6.748;2022-12-07T05:48:09;16.60;;;8.07;;
11481;SDS011;5797;51.662;6.748;2022-12-07T05:50:38;18.53;;;9.00;;
11481;SDS011;5797;51.662;6.748;2022-12-07T05:53:07;18.77;;;8.17;;
11481;SDS011;5797;51.662;6.748;2022-12-07T05:55:37;17.53;;;8.80;;
11481;SDS011;5797;51.662;6.748;2022-12-07T05:58:06;16.73;;;8.93;;
11481;SDS011;5797;51.662;6.748;2022-12-07T06:00:54;15.37;;;8.80;;
11481;SDS011;5797;51.662;6.748;2022-12-07T06:03:22;12.47;;;8.17;;
11481;SDS011;5797;51.662;6.748;2022-12-07T06:05:51;16.00;;;8.30;;
11481;SDS011;5797;51.662;6.748;2022-12-07T06:08:21;12.10;;;8.20;;
11481;SDS011;5797;51.662;6.748;2022-12-07T06:10:51;13.60;;;8.23;;
11481;SDS011;5797;51.662;6.748;2022-12-07T06:13:40;13.33;;;8.30;;
11481;SDS011;5797;51.662;6.748;2022-12-07T06:16:13;17.37;;;8.93;;
11481;SDS011;5797;51.662;6.748;2022-12-07T06:18:42;15.37;;;8.23;;
11481;SDS011;5797;51.662;6.748;2022-12-07T06:21:12;15.97;;;8.27;;
11481;SDS011;5797;51.662;6.748;2022-12-07T06:23:41;14.03;;;7.80;;
11481;SDS011;5797;51.662;6.748;2022-12-07T06:26:11;17.90;;;8.30;;
11481;SDS011;5797;51.662;6.748;2022-12-07T06:28:40;13.80;;;8.50;;
11481;SDS011;5797;51.662;6.748;2022-12-07T06:31:09;12.67;;;7.50;;
11481;SDS011;5797;51.662;6.748;2022-12-07T06:33:40;12.50;;;6.87;;
11481;SDS011;5797;51.662;6.748;2022-12-07T06:36:09;14.87;;;7.43;;
11481;SDS011;5797;51.662;6.748;2022-12-07T06:38:38;15.97;;;8.07;;
11481;SDS011;5797;51.662;6.748;2022-12-07T06:41:07;11.77;;;6.33;;
11481;SDS011;5797;51.662;6.748;2022-12-07T06:43:38;15.60;;;6.60;;
11481;SDS011;5797;51.662;6.748;2022-12-07T06:46:07;17.37;;;7.30;;
11481;SDS011;5797;51.662;6.748;2022-12-07T06:48:36;13.67;;;6.57;;
11481;SDS011;5797;51.662;6.748;2022-12-07T06:51:05;15.27;;;7.90;;
11481;SDS011;5797;51.662;6.748;2022-12-07T06:53:34;13.00;;;7.67;;
11481;SDS011;5797;51.662;6.748;2022-12-07T06:56:04;12.03;;;7.70;;
11481;SDS011;5797;51.662;6.748;2022-12-07T06:58:33;14.03;;;6.83;;
11481;SDS011;5797;51.662;6.748;2022-12-07T07:01:07;13.23;;;7.80;;
11481;SDS011;5797;51.662;6.748;2022-12-07T07:03:37;10.43;;;6.93;;
11481;SDS011;5797;51.662;6.748;2022-12-07T07:06:06;13.60;;;6.50;;
11481;SDS011;5797;51.662;6.748;2022-12-07T07:08:35;19.50;;;6.67;;
11481;SDS011;5797;51.662;6.748;2022-12-07T07:11:05;13.20;;;5.93;;
11481;SDS011;5797;51.662;6.748;2022-12-07T07:13:34;12.83;;;7.67;;
11481;SDS011;5797;51.662;6.748;2022-12-07T07:16:05;15.03;;;6.97;;
11481;SDS011;5797;51.662;6.748;2022-12-07T07:18:35;12.10;;;7.40;;
11481;SDS011;5797;51.662;6.748;2022-12-07T07:21:04;16.60;;;10.50;;
11481;SDS011;5797;51.662;6.748;2022-12-07T07:23:33;21.03;;;11.40;;
11481;SDS011;5797;51.662;6.748;2022-12-07T07:26:02;21.03;;;10.40;;
11481;SDS011;5797;51.662;6.748;2022-12-07T07:28:32;19.63;;;10.30;;
11481;SDS011;5797;51.662;6.748;2022-12-07T07:31:01;16.17;;;9.07;;
11481;SDS011;5797;51.662;6.748;2022-12-07T07:33:32;19.83;;;11.53;;
11481;SDS011;5797;51.662;6.748;2022-12-07T07:36:01;18.10;;;11.63;;
11481;SDS011;5797;51.662;6.748;2022-12-07T07:38:29;21.30;;;11.10;;
11481;SDS011;5797;51.662;6.748;2022-12-07T07:40:59;20.83;;;9.47;;
11481;SDS011;5797;51.662;6.748;2022-12-07T07:43:28;15.87;;;10.70;;
11481;SDS011;5797;51.662;6.748;2022-12-07T07:45:57;16.87;;;9.10;;
11481;SDS011;5797;51.662;6.748;2022-12-07T07:48:29;18.33;;;9.77;;
11481;SDS011;5797;51.662;6.748;2022-12-07T07:51:00;19.93;;;9.10;;
11481;SDS011;5797;51.662;6.748;2022-12-07T07:53:29;13.83;;;9.57;;
11481;SDS011;5797;51.662;6.748;2022-12-07T07:55:58;18.80;;;10.50;;
11481;SDS011;5797;51.662;6.748;2022-12-07T07:58:27;22.90;;;10.93;;
11481;SDS011;5797;51.662;6.748;2022-12-07T08:00:56;22.97;;;12.13;;
11481;SDS011;5797;51.662;6.748;2022-12-07T08:03:25;20.13;;;12.43;;
11481;SDS011;5797;51.662;6.748;2022-12-07T08:05:54;21.37;;;12.17;;
11481;SDS011;5797;51.662;6.748;2022-12-07T08:08:24;20.20;;;11.17;;
11481;SDS011;5797;51.662;6.748;2022-12-07T08:10:53;20.90;;;10.50;;
11481;SDS011;5797;51.662;6.748;2022-12-07T08:13:23;22.03;;;8.63;;
11481;SDS011;5797;51.662;6.748;2022-12-07T08:15:57;14.57;;;7.67;;
11481;SDS011;5797;51.662;6.748;2022-12-07T08:18:27;16.27;;;9.20;;
11481;SDS011;5797;51.662;6.748;2022-12-07T08:20:58;15.07;;;8.23;;
11481;SDS011;5797;51.662;6.748;2022-12-07T08:23:29;13.77;;;8.57;;
11481;SDS011;5797;51.662;6.748;2022-12-07T08:26:07;13.93;;;7.67;;
11481;SDS011;5797;51.662;6.748;2022-12-07T08:28:38;15.20;;;7.93;;
11481;SDS011;5797;51.662;6.748;2022-12-07T08:31:08;15.83;;;7.87;;
11481;SDS011;5797;51.662;6.748;2022-12-07T08:33:39;15.47;;;7.40;;
11481;SDS011;5797;51.662;6.748;2022-12-07T08:36:10;14.37;;;7.70;;
11481;SDS011;5797;51.662;6.748;2022-12-07T08:38:42;14.87;;;7.53;;
11481;SDS011;5797;51.662;6.748;2022-12-07T08:41:27;15.30;;;7.77;;
11481;SDS011;5797;51.662;6.748;2022-12-07T08:43:56;16.80;;;8.13;;
11481;SDS011;5797;51.662;6.748;2022-12-07T08:46:26;16.33;;;7.17;;
11481;SDS011;5797;51.662;6.748;2022-12-07T08:49:02;11.40;;;6.57;;
11481;SDS011;5797;51.662;6.748;2022-12-07T08:51:33;20.67;;;7.27;;
11481;SDS011;5797;51.662;6.748;2022-12-07T08:54:04;13.50;;;7.27;;
11481;SDS011;5797;51.662;6.748;2022-12-07T08:56:36;13.30;;;6.90;;
11481;SDS011;5797;51.662;6.748;2022-12-07T08:59:05;10.53;;;6.70;;
11481;SDS011;5797;51.662;6.748;2022-12-07T09:01:35;16.13;;;7.17;;
11481;SDS011;5797;51.662;6.748;2022-12-07T09:04:03;16.13;;;7.43;;
11481;SDS011;5797;51.662;6.748;2022-12-07T09:06:32;13.47;;;6.50;;
11481;SDS011;5797;51.662;6.748;2022-12-07T09:09:02;16.60;;;6.07;;
11481;SDS011;5797;51.662;6.748;2022-12-07T09:11:33;16.47;;;6.40;;
11481;SDS011;5797;51.662;6.748;2022-12-07T09:14:02;17.10;;;7.33;;
11481;SDS011;5797;51.662;6.748;2022-12-07T09:16:31;12.73;;;6.47;;
11481;SDS011;5797;51.662;6.748;2022-12-07T09:19:00;15.63;;;7.67;;
11481;SDS011;5797;51.662;6.748;2022-12-07T09:21:29;14.07;;;6.27;;
11481;SDS011;5797;51.662;6.748;2022-12-07T09:23:58;11.73;;;6.10;;
11481;SDS011;5797;51.662;6.748;2022-12-07T09:26:28;11.67;;;6.80;;
11481;SDS011;5797;51.662;6.748;2022-12-07T09:28:58;14.23;;;7.17;;
11481;SDS011;5797;51.662;6.748;2022-12-07T09:31:27;11.47;;;6.90;;
11481;SDS011;5797;51.662;6.748;2022-12-07T09:33:56;16.60;;;6.67;;
11481;SDS011;5797;51.662;6.748;2022-12-07T09:36:25;17.37;;;5.50;;
11481;SDS011;5797;51.662;6.748;2022-12-07T09:38:54;11.70;;;6.47;;
11481;SDS011;5797;51.662;6.748;2022-12-07T09:41:24;10.67;;;5.97;;
11481;SDS011;5797;51.662;6.748;2022-12-07T09:43:57;19.20;;;6.07;;
11481;SDS011;5797;51.662;6.748;2022-12-07T09:46:28;9.30;;;6.20;;
11481;SDS011;5797;51.662;6.748;2022-12-07T09:49:02;13.67;;;6.17;;
11481;SDS011;5797;51.662;6.748;2022-12-07T09:51:31;12.63;;;6.60;;
11481;SDS011;5797;51.662;6.748;2022-12-07T09:54:00;14.03;;;5.77;;
11481;SDS011;5797;51.662;6.748;2022-12-07T09:56:30;7.07;;;4.70;;
11481;SDS011;5797;51.662;6.748;2022-12-07T09:59:01;18.77;;;5.87;;
11481;SDS011;5797;51.662;6.748;2022-12-07T10:01:31;16.87;;;6.10;;
11481;SDS011;5797;51.662;6.748;2022-12-07T10:04:08;8.07;;;5.97;;
11481;SDS011;5797;51.662;6.748;2022-12-07T10:06:40;13.50;;;5.53;;
11481;SDS011;5797;51.662;6.748;2022-12-07T10:09:10;10.07;;;5.83;;
11481;SDS011;5797;51.662;6.748;2022-12-07T10:11:59;16.37;;;6.33;;
11481;SDS011;5797;51.662;6.748;2022-12-07T10:14:36;13.83;;;5.43;;
11481;SDS011;5797;51.662;6.748;2022-12-07T10:17:30;11.67;;;5.87;;
11481;SDS011;5797;51.662;6.748;2022-12-07T10:20:15;11.07;;;5.37;;
11481;SDS011;5797;51.662;6.748;2022-12-07T10:22:53;10.03;;;5.27;;
11481;SDS011;5797;51.662;6.748;2022-12-07T10:25:26;13.93;;;5.70;;
11481;SDS011;5797;51.662;6.748;2022-12-07T10:28:00;11.10;;;5.30;;
11481;SDS011;5797;51.662;6.748;2022-12-07T10:30:32;13.40;;;5.50;;
11481;SDS011;5797;51.662;6.748;2022-12-07T10:33:02;14.73;;;5.17;;
11481;SDS011;5797;51.662;6.748;2022-12-07T10:35:32;18.37;;;5.87;;
11481;SDS011;5797;51.662;6.748;2022-12-07T10:38:01;7.63;;;4.73;;
11481;SDS011;5797;51.662;6.748;2022-12-07T10:40:36;7.70;;;4.67;;
11481;SDS011;5797;51.662;6.748;2022-12-07T10:43:16;8.40;;;4.13;;
11481;SDS011;5797;51.662;6.748;2022-12-07T10:46:00;8.17;;;4.30;;
11481;SDS011;5797;51.662;6.748;2022-12-07T10:48:42;5.17;;;3.40;;
11481;SDS011;5797;51.662;6.748;2022-12-07T10:51:15;10.20;;;4.30;;
11481;SDS011;5797;51.662;6.748;2022-12-07T10:53:52;10.03;;;4.13;;
11481;SDS011;5797;51.662;6.748;2022-12-07T11:02:26;10.33;;;3.77;;
11481;SDS011;5797;51.662;6.748;2022-12-07T11:05:09;9.27;;;4.07;;
11481;SDS011;5797;51.662;6.748;2022-12-07T11:07:48;8.80;;;4.00;;
11481;SDS011;5797;51.662;6.748;2022-12-07T11:10:25;8.10;;;3.63;;
11481;SDS011;5797;51.662;6.748;2022-12-07T11:13:08;9.30;;;3.47;;
11481;SDS011;5797;51.662;6.748;2022-12-07T11:15:55;7.83;;;3.30;;
11481;SDS011;5797;51.662;6.748;2022-12-07T11:18:35;8.27;;;3.20;;
11481;SDS011;5797;51.662;6.748;2022-12-07T11:21:09;7.50;;;3.13;;
11481;SDS011;5797;51.662;6.748;2022-12-07T11:23:45;9.30;;;3.27;;
11481;SDS011;5797;51.662;6.748;2022-12-07T11:26:21;8.33;;;2.73;;
11481;SDS011;5797;51.662;6.748;2022-12-07T11:29:06;4.67;;;2.97;;
11481;SDS011;5797;51.662;6.748;2022-12-07T11:31:52;5.50;;;3.00;;
11481;SDS011;5797;51.662;6.748;2022-12-07T11:34:29;7.87;;;2.97;;
11481;SDS011;5797;51.662;6.748;2022-12-07T11:37:06;7.03;;;2.90;;
11481;SDS011;5797;51.662;6.748;2022-12-07T11:39:41;9.47;;;2.97;;
11481;SDS011;5797;51.662;6.748;2022-12-07T11:42:15;6.97;;;2.50;;
11481;SDS011;5797;51.662;6.748;2022-12-07T11:44:50;3.20;;;2.70;;
11481;SDS011;5797;51.662;6.748;2022-12-07T11:47:23;7.33;;;2.70;;
11481;SDS011;5797;51.662;6.748;2022-12-07T11:50:00;6.77;;;2.90;;
11481;SDS011;5797;51.662;6.748;2022-12-07T11:52:38;17.20;;;2.80;;
11481;SDS011;5797;51.662;6.748;2022-12-07T11:55:14;4.23;;;2.27;;
11481;SDS011;5797;51.662;6.748;2022-12-07T11:57:50;8.97;;;3.40;;
11481;SDS011;5797;51.662;6.748;2022-12-07T12:00:20;8.93;;;3.30;;
11481;SDS011;5797;51.662;6.748;2022-12-07T12:02:51;4.97;;;2.67;;
11481;SDS011;5797;51.662;6.748;2022-12-07T12:05:24;13.03;;;3.80;;
11481;SDS011;5797;51.662;6.748;2022-12-07T12:08:01;9.13;;;3.13;;
11481;SDS011;5797;51.662;6.748;2022-12-07T12:11:02;6.40;;;3.33;;
11481;SDS011;5797;51.662;6.748;2022-12-07T12:13:47;9.70;;;2.70;;
11481;SDS011;5797;51.662;6.748;2022-12-07T12:19:34;8.07;;;3.17;;
11481;SDS011;5797;51.662;6.748;2022-12-07T12:22:09;5.63;;;2.93;;
11481;SDS011;5797;51.662;6.748;2022-12-07T12:24:41;10.60;;;3.40;;
11481;SDS011;5797;51.662;6.748;2022-12-07T12:27:15;10.33;;;3.33;;
11481;SDS011;5797;51.662;6.748;2022-12-07T12:29:51;6.30;;;2.83;;
11481;SDS011;5797;51.662;6.748;2022-12-07T12:32:21;5.60;;;2.50;;
11481;SDS011;5797;51.662;6.748;2022-12-07T12:34:59;12.20;;;3.57;;
11481;SDS011;5797;51.662;6.748;2022-12-07T12:37:43;7.83;;;3.73;;
11481;SDS011;5797;51.662;6.748;2022-12-07T12:58:25;10.37;;;2.70;;
11481;SDS011;5797;51.662;6.748;2022-12-07T13:04:21;5.70;;;2.80;;
11481;SDS011;5797;51.662;6.748;2022-12-07T13:06:53;5.33;;;2.50;;
11481;SDS011;5797;51.662;6.748;2022-12-07T13:09:23;6.13;;;2.37;;
11481;SDS011;5797;51.662;6.748;2022-12-07T13:11:57;9.00;;;3.50;;
11481;SDS011;5797;51.662;6.748;2022-12-07T13:14:40;9.83;;;2.77;;
11481;SDS011;5797;51.662;6.748;2022-12-07T13:20:40;4.57;;;2.10;;
11481;SDS011;5797;51.662;6.748;2022-12-07T13:23:13;9.10;;;2.73;;
11481;SDS011;5797;51.662;6.748;2022-12-07T13:25:51;3.20;;;2.30;;
11481;SDS011;5797;51.662;6.748;2022-12-07T13:28:25;7.60;;;2.53;;
11481;SDS011;5797;51.662;6.748;2022-12-07T13:31:02;5.37;;;2.70;;
11481;SDS011;5797;51.662;6.748;2022-12-07T13:33:37;7.40;;;2.60;;
11481;SDS011;5797;51.662;6.748;2022-12-07T13:36:09;5.67;;;2.53;;
11481;SDS011;5797;51.662;6.748;2022-12-07T13:38:48;6.90;;;2.93;;
11481;SDS011;5797;51.662;6.748;2022-12-07T13:41:20;12.23;;;3.03;;
11481;SDS011;5797;51.662;6.748;2022-12-07T13:43:51;6.40;;;2.60;;
11481;SDS011;5797;51.662;6.748;2022-12-07T13:46:25;7.33;;;2.77;;
11481;SDS011;5797;51.662;6.748;2022-12-07T13:49:02;6.83;;;2.80;;
11481;SDS011;5797;51.662;6.748;2022-12-07T13:51:33;7.17;;;2.30;;
11481;SDS011;5797;51.662;6.748;2022-12-07T13:54:09;7.93;;;2.87;;
11481;SDS011;5797;51.662;6.748;2022-12-07T13:56:39;9.40;;;2.87;;
11481;SDS011;5797;51.662;6.748;2022-12-07T13:59:13;7.10;;;3.07;;
11481;SDS011;5797;51.662;6.748;2022-12-07T14:01:45;9.33;;;3.00;;
11481;SDS011;5797;51.662;6.748;2022-12-07T14:04:31;8.40;;;2.47;;
11481;SDS011;5797;51.662;6.748;2022-12-07T14:09:54;5.47;;;2.67;;
11481;SDS011;5797;51.662;6.748;2022-12-07T14:12:25;7.30;;;2.47;;
11481;SDS011;5797;51.662;6.748;2022-12-07T14:14:55;5.67;;;2.40;;
11481;SDS011;5797;51.662;6.748;2022-12-07T14:17:27;7.23;;;3.10;;
11481;SDS011;5797;51.662;6.748;2022-12-07T14:19:57;6.43;;;2.67;;
11481;SDS011;5797;51.662;6.748;2022-12-07T14:22:28;8.70;;;3.50;;
11481;SDS011;5797;51.662;6.748;2022-12-07T14:25:11;9.47;;;3.47;;
11481;SDS011;5797;51.662;6.748;2022-12-07T14:27:57;5.00;;;2.60;;
11481;SDS011;5797;51.662;6.748;2022-12-07T14:30:27;6.33;;;3.00;;
11481;SDS011;5797;51.662;6.748;2022-12-07T14:32:59;5.13;;;2.83;;
11481;SDS011;5797;51.662;6.748;2022-12-07T14:35:30;5.40;;;2.63;;
11481;SDS011;5797;51.662;6.748;2022-12-07T14:38:00;5.80;;;2.20;;
11481;SDS011;5797;51.662;6.748;2022-12-07T14:40:29;5.77;;;2.37;;
11481;SDS011;5797;51.662;6.748;2022-12-07T14:43:00;8.27;;;2.20;;
11481;SDS011;5797;51.662;6.748;2022-12-07T14:45:30;5.20;;;2.47;;
11481;SDS011;5797;51.662;6.748;2022-12-07T14:48:02;5.77;;;2.63;;
11481;SDS011;5797;51.662;6.748;2022-12-07T14:50:51;8.23;;;2.53;;
11481;SDS011;5797;51.662;6.748;2022-12-07T14:53:41;6.37;;;2.20;;
11481;SDS011;5797;51.662;6.748;2022-12-07T14:56:12;5.03;;;2.07;;
11481;SDS011;5797;51.662;6.748;2022-12-07T14:58:42;6.57;;;2.80;;
11481;SDS011;5797;51.662;6.748;2022-12-07T15:01:11;4.43;;;2.80;;
11481;SDS011;5797;51.662;6.748;2022-12-07T15:03:41;9.07;;;2.70;;
11481;SDS011;5797;51.662;6.748;2022-12-07T15:06:10;8.63;;;2.67;;
11481;SDS011;5797;51.662;6.748;2022-12-07T15:08:41;11.70;;;2.90;;
11481;SDS011;5797;51.662;6.748;2022-12-07T15:11:11;9.63;;;3.93;;
11481;SDS011;5797;51.662;6.748;2022-12-07T15:13:40;18.13;;;6.93;;
11481;SDS011;5797;51.662;6.748;2022-12-07T15:16:27;10.30;;;6.03;;
11481;SDS011;5797;51.662;6.748;2022-12-07T15:19:11;11.30;;;6.67;;
11481;SDS011;5797;51.662;6.748;2022-12-07T15:21:57;7.73;;;5.17;;
11481;SDS011;5797;51.662;6.748;2022-12-07T15:24:27;7.57;;;4.07;;
11481;SDS011;5797;51.662;6.748;2022-12-07T15:26:56;6.87;;;3.63;;
11481;SDS011;5797;51.662;6.748;2022-12-07T15:29:24;14.57;;;4.27;;
11481;SDS011;5797;51.662;6.748;2022-12-07T15:31:53;12.07;;;4.50;;
11481;SDS011;5797;51.662;6.748;2022-12-07T15:34:26;13.53;;;3.87;;
11481;SDS011;5797;51.662;6.748;2022-12-07T15:37:05;9.63;;;5.17;;
11481;SDS011;5797;51.662;6.748;2022-12-07T15:39:35;12.03;;;6.30;;
11481;SDS011;5797;51.662;6.748;2022-12-07T15:42:04;12.13;;;4.43;;
11481;SDS011;5797;51.662;6.748;2022-12-07T15:44:33;16.07;;;4.60;;
11481;SDS011;5797;51.662;6.748;2022-12-07T15:47:19;8.70;;;4.33;;
11481;SDS011;5797;51.662;6.748;2022-12-07T15:49:51;7.50;;;4.20;;
11481;SDS011;5797;51.662;6.748;2022-12-07T15:52:22;7.03;;;4.23;;
11481;SDS011;5797;51.662;6.748;2022-12-07T15:54:51;11.77;;;5.23;;
11481;SDS011;5797;51.662;6.748;2022-12-07T15:57:21;11.77;;;5.87;;
11481;SDS011;5797;51.662;6.748;2022-12-07T15:59:51;14.30;;;6.97;;